createdAt,value
2017-12-10T00:00:47.313Z,995.92
2017-12-10T00:01:47.377Z,995.90
2017-12-10T00:02:47.340Z,995.87
2017-12-10T00:03:47.385Z,995.85
2017-12-10T00:04:47.310Z,995.81
2017-12-10T00:05:47.315Z,995.78
2017-12-10T00:06:47.381Z,995.75
2017-12-10T00:07:47.449Z,995.82
2017-12-10T00:08:47.236Z,995.75
2017-12-10T00:09:47.328Z,995.71
2017-12-10T00:10:47.349Z,995.73
2017-12-10T00:11:47.285Z,995.72
2017-12-10T00:12:47.331Z,995.67
2017-12-10T00:13:47.230Z,995.68
2017-12-10T00:14:47.234Z,995.68
2017-12-10T00:15:47.238Z,995.63
2017-12-10T00:16:47.287Z,995.56
2017-12-10T00:17:47.285Z,995.52
2017-12-10T00:18:47.337Z,995.47
2017-12-10T00:19:47.314Z,995.46
2017-12-10T00:20:47.325Z,995.42
2017-12-10T00:21:47.297Z,995.49
2017-12-10T00:22:47.280Z,995.53
2017-12-10T00:23:47.350Z,995.53
2017-12-10T00:24:47.320Z,995.57
2017-12-10T00:25:47.299Z,995.54
2017-12-10T00:26:47.285Z,995.57
2017-12-10T00:27:47.372Z,995.54
2017-12-10T00:28:47.326Z,995.58
2017-12-10T00:29:47.402Z,995.52
2017-12-10T00:30:47.328Z,995.49
2017-12-10T00:31:47.367Z,995.50
2017-12-10T00:32:47.396Z,995.47
2017-12-10T00:33:47.333Z,995.40
2017-12-10T00:34:47.337Z,995.39
2017-12-10T00:35:47.330Z,995.33
2017-12-10T00:36:47.370Z,995.34
2017-12-10T00:37:47.401Z,995.30
2017-12-10T00:38:47.403Z,995.31
2017-12-10T00:39:47.335Z,995.28
2017-12-10T00:40:47.407Z,995.27
2017-12-10T00:41:47.335Z,995.25
2017-12-10T00:42:47.356Z,995.31
2017-12-10T00:43:47.339Z,995.29
2017-12-10T00:44:47.403Z,995.26
2017-12-10T00:45:47.331Z,995.17
2017-12-10T00:46:47.402Z,995.21
2017-12-10T00:47:47.407Z,995.15
2017-12-10T00:48:47.339Z,995.18
2017-12-10T00:49:47.359Z,995.17
2017-12-10T00:50:47.406Z,995.14
2017-12-10T00:51:47.343Z,995.17
2017-12-10T00:52:47.409Z,995.06
2017-12-10T00:53:47.340Z,995.07
2017-12-10T00:54:47.422Z,995.03
2017-12-10T00:55:47.418Z,995.00
2017-12-10T00:56:47.344Z,994.98
2017-12-10T00:57:47.348Z,994.91
2017-12-10T00:58:47.345Z,994.90
2017-12-10T00:59:47.415Z,994.91
2017-12-10T01:00:47.344Z,994.85
2017-12-10T01:01:47.415Z,994.81
2017-12-10T01:02:47.352Z,994.78
2017-12-10T01:03:47.415Z,994.78
2017-12-10T01:04:47.373Z,994.72
2017-12-10T01:05:47.356Z,994.65
2017-12-10T01:06:47.424Z,994.67
2017-12-10T01:07:47.416Z,994.62
2017-12-10T01:08:47.297Z,994.62
2017-12-10T01:09:47.403Z,994.59
2017-12-10T01:10:47.371Z,994.63
2017-12-10T01:11:47.408Z,994.64
2017-12-10T01:12:47.406Z,994.56
2017-12-10T01:13:47.322Z,994.60
2017-12-10T01:16:47.373Z,994.54
2017-12-10T01:17:47.287Z,994.57
2017-12-10T01:18:47.293Z,994.49
2017-12-10T01:19:47.371Z,994.50
2017-12-10T01:20:47.282Z,994.48
2017-12-10T01:21:47.284Z,994.43
2017-12-10T01:22:47.432Z,994.43
2017-12-10T01:23:47.318Z,994.39
2017-12-10T01:24:47.384Z,994.34
2017-12-10T01:25:47.410Z,994.28
2017-12-10T01:26:47.380Z,994.26
2017-12-10T01:27:47.321Z,994.26
2017-12-10T01:28:47.334Z,994.29
2017-12-10T01:29:47.334Z,994.23
2017-12-10T01:30:47.436Z,994.24
2017-12-10T01:31:47.386Z,994.24
2017-12-10T01:32:47.312Z,994.21
2017-12-10T01:33:47.362Z,994.19
2017-12-10T01:34:47.389Z,994.15
2017-12-10T01:35:47.431Z,994.12
2017-12-10T01:36:47.420Z,994.12
2017-12-10T01:37:47.316Z,994.04
2017-12-10T01:38:47.339Z,994.07
2017-12-10T01:39:47.372Z,994.02
2017-12-10T01:40:47.427Z,994.02
2017-12-10T01:41:47.342Z,993.98
2017-12-10T01:42:47.300Z,993.94
2017-12-10T01:43:47.368Z,993.92
2017-12-10T01:44:47.315Z,993.88
2017-12-10T01:45:47.367Z,993.93
2017-12-10T01:46:47.341Z,993.86
2017-12-10T01:47:47.430Z,993.85
2017-12-10T01:48:47.446Z,993.84
2017-12-10T01:49:47.368Z,993.78
2017-12-10T01:50:47.443Z,993.79
2017-12-10T01:51:47.381Z,993.81
2017-12-10T01:52:47.446Z,993.72
2017-12-10T01:53:47.381Z,993.73
2017-12-10T01:54:47.396Z,993.70
2017-12-10T01:55:47.449Z,993.70
2017-12-10T01:56:47.378Z,993.67
2017-12-10T01:57:47.454Z,993.66
2017-12-10T01:58:47.352Z,993.64
2017-12-10T01:59:47.441Z,993.66
2017-12-10T02:00:47.395Z,993.61
2017-12-10T02:01:47.433Z,993.60
2017-12-10T02:02:47.429Z,993.59
2017-12-10T02:03:47.421Z,993.53
2017-12-10T02:04:47.356Z,993.55
2017-12-10T02:05:47.471Z,993.51
2017-12-10T02:06:47.442Z,993.52
2017-12-10T02:07:47.321Z,993.56
2017-12-10T02:08:47.411Z,993.54
2017-12-10T02:09:47.383Z,993.58
2017-12-10T02:10:47.403Z,993.50
2017-12-10T02:11:47.338Z,993.46
2017-12-10T02:12:47.410Z,993.44
2017-12-10T02:13:47.416Z,993.39
2017-12-10T02:14:47.318Z,993.40
2017-12-10T02:15:47.366Z,993.39
2017-12-10T02:16:47.343Z,993.34
2017-12-10T02:17:47.421Z,993.32
2017-12-10T02:18:47.390Z,993.30
2017-12-10T02:19:47.474Z,993.30
2017-12-10T02:20:47.460Z,993.28
2017-12-10T02:21:47.395Z,993.28
2017-12-10T02:22:47.394Z,993.32
2017-12-10T02:23:47.491Z,993.30
2017-12-10T02:24:47.396Z,993.25
2017-12-10T02:25:47.464Z,993.26
2017-12-10T02:26:47.401Z,993.24
2017-12-10T02:27:47.492Z,993.21
2017-12-10T02:28:47.462Z,993.19
2017-12-10T02:29:47.413Z,993.16
2017-12-10T02:30:47.334Z,993.10
2017-12-10T02:31:47.474Z,993.06
2017-12-10T02:32:47.458Z,993.08
2017-12-10T02:33:47.374Z,993.04
2017-12-10T02:34:47.333Z,993.03
2017-12-10T02:35:47.455Z,993.03
2017-12-10T02:36:47.374Z,993.04
2017-12-10T02:37:47.466Z,992.97
2017-12-10T02:38:47.470Z,992.91
2017-12-10T02:39:47.404Z,992.88
2017-12-10T02:40:47.472Z,992.87
2017-12-10T02:41:47.410Z,992.88
2017-12-10T02:42:47.473Z,992.85
2017-12-10T02:43:47.408Z,992.82
2017-12-10T02:44:47.475Z,992.74
2017-12-10T02:45:47.416Z,992.72
2017-12-10T02:46:47.477Z,992.66
2017-12-10T02:47:47.414Z,992.68
2017-12-10T02:48:47.478Z,992.69
2017-12-10T02:49:47.407Z,992.63
2017-12-10T02:50:47.503Z,992.65
2017-12-10T02:51:47.479Z,992.59
2017-12-10T02:52:47.413Z,992.58
2017-12-10T02:53:47.478Z,992.59
2017-12-10T02:54:47.415Z,992.63
2017-12-10T02:55:47.501Z,992.60
2017-12-10T02:56:47.417Z,992.58
2017-12-10T02:57:47.485Z,992.57
2017-12-10T02:58:47.475Z,992.56
2017-12-10T02:59:47.468Z,992.55
2017-12-10T03:00:47.440Z,992.49
2017-12-10T03:01:47.481Z,992.54
2017-12-10T03:02:47.367Z,992.48
2017-12-10T03:03:47.480Z,992.49
2017-12-10T03:04:47.393Z,992.46
2017-12-10T03:05:47.443Z,992.46
2017-12-10T03:06:47.390Z,992.44
2017-12-10T03:07:47.485Z,992.43
2017-12-10T03:08:47.425Z,992.43
2017-12-10T03:09:47.380Z,992.37
2017-12-10T03:10:47.517Z,992.40
2017-12-10T03:11:47.429Z,992.40
2017-12-10T03:12:47.501Z,992.32
2017-12-10T03:13:47.426Z,992.31
2017-12-10T03:14:47.500Z,992.32
2017-12-10T03:15:47.426Z,992.22
2017-12-10T03:16:47.429Z,992.23
2017-12-10T03:17:47.495Z,992.22
2017-12-10T03:18:47.449Z,992.28
2017-12-10T03:19:47.441Z,992.27
2017-12-10T03:20:47.481Z,992.24
2017-12-10T03:21:47.383Z,992.26
2017-12-10T03:22:47.393Z,992.21
2017-12-10T03:23:47.483Z,992.23
2017-12-10T03:24:47.479Z,992.26
2017-12-10T03:25:47.480Z,992.15
2017-12-10T03:26:47.479Z,992.26
2017-12-10T03:27:47.458Z,992.19
2017-12-10T03:28:47.524Z,992.21
2017-12-10T03:29:47.441Z,992.16
2017-12-10T03:30:47.506Z,992.17
2017-12-10T03:31:47.502Z,992.14
2017-12-10T03:32:47.460Z,992.07
2017-12-10T03:33:47.441Z,992.03
2017-12-10T03:34:47.505Z,992.01
2017-12-10T03:35:47.440Z,991.95
2017-12-10T03:36:47.437Z,991.93
2017-12-10T03:37:47.506Z,991.92
2017-12-10T03:38:47.464Z,991.87
2017-12-10T03:39:47.469Z,991.89
2017-12-10T03:40:47.393Z,991.92
2017-12-10T03:41:47.401Z,991.85
2017-12-10T03:42:47.394Z,991.83
2017-12-10T03:43:47.455Z,991.85
2017-12-10T03:44:47.367Z,991.79
2017-12-10T03:45:51.715Z,991.78
2017-12-10T03:46:47.463Z,991.77
2017-12-10T03:47:47.447Z,991.80
2017-12-10T03:48:47.447Z,991.82
2017-12-10T03:49:47.453Z,991.82
2017-12-10T03:50:47.451Z,991.74
2017-12-10T03:51:47.519Z,991.78
2017-12-10T03:52:47.522Z,991.76
2017-12-10T03:53:47.444Z,991.64
2017-12-10T03:54:47.517Z,991.66
2017-12-10T03:55:47.447Z,991.56
2017-12-10T03:56:47.447Z,991.58
2017-12-10T03:57:47.450Z,991.56
2017-12-10T03:58:47.449Z,991.53
2017-12-10T03:59:47.470Z,991.48
2017-12-10T04:00:47.455Z,991.42
2017-12-10T04:01:47.520Z,991.41
2017-12-10T04:02:47.519Z,991.38
2017-12-10T04:03:47.465Z,991.33
2017-12-10T04:04:47.427Z,991.43
2017-12-10T04:05:47.517Z,991.37
2017-12-10T04:06:47.513Z,991.33
2017-12-10T04:07:47.508Z,991.27
2017-12-10T04:08:47.456Z,991.26
2017-12-10T04:09:47.530Z,991.27
2017-12-10T04:10:47.462Z,991.20
2017-12-10T04:11:47.526Z,991.21
2017-12-10T04:12:47.484Z,991.22
2017-12-10T04:13:47.462Z,991.20
2017-12-10T04:14:47.462Z,991.23
2017-12-10T04:15:47.461Z,991.21
2017-12-10T04:16:47.428Z,991.14
2017-12-10T04:17:47.462Z,991.11
2017-12-10T04:18:47.479Z,991.01
2017-12-10T04:19:47.485Z,991.02
2017-12-10T04:20:47.485Z,990.96
2017-12-10T04:21:47.424Z,990.92
2017-12-10T04:22:47.393Z,990.91
2017-12-10T04:23:47.513Z,990.91
2017-12-10T04:24:47.515Z,990.92
2017-12-10T04:25:47.403Z,990.99
2017-12-10T04:26:47.392Z,990.94
2017-12-10T04:27:47.499Z,990.95
2017-12-10T04:28:47.395Z,990.93
2017-12-10T04:29:47.464Z,990.94
2017-12-10T04:30:47.522Z,990.94
2017-12-10T04:31:47.525Z,990.94
2017-12-10T04:32:47.525Z,990.91
2017-12-10T04:33:47.444Z,990.83
2017-12-10T04:34:47.420Z,990.80
2017-12-10T04:35:47.472Z,990.76
2017-12-10T04:36:47.449Z,990.70
2017-12-10T04:37:47.451Z,990.74
2017-12-10T04:38:47.490Z,990.73
2017-12-10T04:39:47.453Z,990.77
2017-12-10T04:40:47.414Z,990.75
2017-12-10T04:41:47.504Z,990.74
2017-12-10T04:42:47.440Z,990.72
2017-12-10T04:43:47.407Z,990.63
2017-12-10T04:44:47.527Z,990.60
2017-12-10T04:45:47.465Z,990.52
2017-12-10T04:46:47.437Z,990.44
2017-12-10T04:47:47.440Z,990.42
2017-12-10T04:48:47.498Z,990.39
2017-12-10T04:49:47.513Z,990.42
2017-12-10T04:50:47.552Z,990.36
2017-12-10T04:51:47.519Z,990.30
2017-12-10T04:52:47.482Z,990.20
2017-12-10T04:53:47.504Z,990.20
2017-12-10T04:54:47.555Z,990.21
2017-12-10T04:55:47.507Z,990.20
2017-12-10T04:56:47.490Z,990.17
2017-12-10T04:57:47.491Z,990.18
2017-12-10T04:58:47.554Z,990.13
2017-12-10T04:59:47.409Z,990.08
2017-12-10T05:00:47.412Z,990.15
2017-12-10T05:01:47.462Z,990.17
2017-12-10T05:02:47.530Z,990.12
2017-12-10T05:03:47.382Z,990.02
2017-12-10T05:04:47.459Z,990.01
2017-12-10T05:05:47.455Z,989.97
2017-12-10T05:06:47.451Z,989.93
2017-12-10T05:07:47.412Z,989.95
2017-12-10T05:08:47.415Z,989.94
2017-12-10T05:09:47.560Z,989.90
2017-12-10T05:10:47.494Z,989.85
2017-12-10T05:11:47.561Z,989.86
2017-12-10T05:12:47.509Z,989.81
2017-12-10T05:13:47.498Z,989.81
2017-12-10T05:14:47.507Z,989.79
2017-12-10T05:15:47.562Z,989.75
2017-12-10T05:16:47.500Z,989.68
2017-12-10T05:17:47.500Z,989.67
2017-12-10T05:18:47.573Z,989.65
2017-12-10T05:19:47.496Z,989.67
2017-12-10T05:20:47.577Z,989.67
2017-12-10T05:21:47.540Z,989.61
2017-12-10T05:22:47.499Z,989.59
2017-12-10T05:23:47.579Z,989.58
2017-12-10T05:24:47.504Z,989.60
2017-12-10T05:25:47.577Z,989.48
2017-12-10T05:26:47.571Z,989.57
2017-12-10T05:27:47.512Z,989.55
2017-12-10T05:28:47.576Z,989.47
2017-12-10T05:29:47.508Z,989.42
2017-12-10T05:30:47.509Z,989.43
2017-12-10T05:31:47.573Z,989.37
2017-12-10T05:32:47.508Z,989.28
2017-12-10T05:33:47.518Z,989.31
2017-12-10T05:34:47.509Z,989.28
2017-12-10T05:35:47.580Z,989.31
2017-12-10T05:36:47.512Z,989.28
2017-12-10T05:37:47.582Z,989.25
2017-12-10T05:38:47.511Z,989.25
2017-12-10T05:39:47.514Z,989.18
2017-12-10T05:40:47.519Z,989.17
2017-12-10T05:41:47.580Z,989.11
2017-12-10T05:42:47.584Z,989.09
2017-12-10T05:43:47.516Z,989.11
2017-12-10T05:44:47.517Z,989.12
2017-12-10T05:45:47.584Z,989.11
2017-12-10T05:46:47.515Z,989.12
2017-12-10T05:47:47.582Z,989.04
2017-12-10T05:48:47.512Z,988.97
2017-12-10T05:49:47.447Z,988.93
2017-12-10T05:50:47.465Z,988.89
2017-12-10T05:51:47.550Z,988.93
2017-12-10T05:52:47.507Z,988.87
2017-12-10T05:53:47.527Z,988.81
2017-12-10T05:54:47.521Z,988.80
2017-12-10T05:55:47.467Z,988.72
2017-12-10T05:56:47.536Z,988.71
2017-12-10T05:57:47.497Z,988.70
2017-12-10T05:58:47.522Z,988.71
2017-12-10T05:59:47.523Z,988.73
2017-12-10T06:00:47.477Z,988.68
2017-12-10T06:01:47.521Z,988.67
2017-12-10T06:02:47.593Z,988.54
2017-12-10T06:03:47.527Z,988.53
2017-12-10T06:04:47.602Z,988.53
2017-12-10T06:05:47.531Z,988.48
2017-12-10T06:06:47.532Z,988.46
2017-12-10T06:07:47.534Z,988.43
2017-12-10T06:08:47.595Z,988.31
2017-12-10T06:09:47.530Z,988.32
2017-12-10T06:10:47.536Z,988.26
2017-12-10T06:11:47.534Z,988.18
2017-12-10T06:12:47.601Z,988.15
2017-12-10T06:13:47.557Z,988.18
2017-12-10T06:14:47.631Z,988.12
2017-12-10T06:15:47.530Z,988.10
2017-12-10T06:16:47.539Z,988.11
2017-12-10T06:17:47.609Z,988.07
2017-12-10T06:18:47.562Z,988.03
2017-12-10T06:19:47.465Z,987.97
2017-12-10T06:20:47.467Z,987.97
2017-12-10T06:21:47.536Z,987.88
2017-12-10T06:22:47.479Z,987.89
2017-12-10T06:23:47.499Z,987.82
2017-12-10T06:24:47.569Z,987.78
2017-12-10T06:25:47.541Z,987.77
2017-12-10T06:26:47.568Z,987.74
2017-12-10T06:27:47.533Z,987.67
2017-12-10T06:28:47.577Z,987.64
2017-12-10T06:29:47.469Z,987.52
2017-12-10T06:30:47.411Z,987.56
2017-12-10T06:31:47.513Z,987.58
2017-12-10T06:32:47.470Z,987.60
2017-12-10T06:33:47.472Z,987.56
2017-12-10T06:34:47.424Z,987.52
2017-12-10T06:35:47.466Z,987.49
2017-12-10T06:36:47.466Z,987.46
2017-12-10T06:37:47.404Z,987.42
2017-12-10T06:38:47.416Z,987.38
2017-12-10T06:39:47.550Z,987.36
2017-12-10T06:40:47.613Z,987.35
2017-12-10T06:41:47.549Z,987.35
2017-12-10T06:42:47.619Z,987.35
2017-12-10T06:43:47.551Z,987.35
2017-12-10T06:44:47.617Z,987.35
2017-12-10T06:45:47.548Z,987.35
2017-12-10T06:46:47.618Z,987.35
2017-12-10T06:47:47.553Z,987.35
2017-12-10T06:48:47.548Z,987.35
2017-12-10T06:49:47.545Z,987.35
2017-12-10T06:50:47.601Z,987.35
2017-12-10T06:51:47.588Z,987.35
2017-12-10T06:52:47.479Z,987.35
2017-12-10T06:53:47.603Z,987.35
2017-12-10T06:54:47.540Z,987.35
2017-12-10T06:55:47.582Z,987.35
2017-12-10T06:56:47.513Z,987.35
2017-12-10T06:57:47.491Z,987.35
2017-12-10T06:58:47.521Z,987.35
2017-12-10T06:59:47.626Z,987.35
2017-12-10T07:00:47.561Z,987.35
2017-12-10T07:01:47.628Z,987.35
2017-12-10T07:02:47.630Z,987.35
2017-12-10T07:03:47.558Z,987.35
2017-12-10T07:04:47.628Z,987.35
2017-12-10T07:05:47.621Z,987.35
2017-12-10T07:06:47.596Z,987.35
2017-12-10T07:07:47.580Z,987.35
2017-12-10T07:08:47.637Z,987.35
2017-12-10T07:09:47.565Z,987.35
2017-12-10T07:10:47.765Z,987.35
2017-12-10T07:11:47.571Z,987.35
2017-12-10T07:12:47.564Z,987.35
2017-12-10T07:13:47.570Z,987.35
2017-12-10T07:14:48.700Z,987.35
2017-12-10T07:15:47.574Z,987.35
2017-12-10T07:16:47.566Z,987.35
2017-12-10T07:17:47.589Z,987.35
2017-12-10T07:18:47.776Z,987.35
2017-12-10T07:19:47.639Z,987.35
2017-12-10T07:20:47.572Z,987.35
2017-12-10T07:21:47.640Z,987.35
2017-12-10T07:22:47.640Z,987.35
2017-12-10T07:23:47.580Z,987.35
2017-12-10T07:24:47.659Z,987.35
2017-12-10T07:25:47.607Z,987.35
2017-12-10T07:26:47.577Z,987.35
2017-12-10T07:27:47.642Z,987.35
2017-12-10T07:28:47.579Z,987.35
2017-12-10T07:29:47.640Z,987.35
2017-12-10T07:30:47.522Z,987.35
2017-12-10T07:31:47.610Z,987.35
2017-12-10T07:32:47.684Z,987.35
2017-12-10T07:33:47.773Z,987.35
2017-12-10T07:34:47.575Z,987.35
2017-12-10T07:35:47.527Z,987.35
2017-12-10T07:36:47.599Z,987.35
2017-12-10T07:37:47.547Z,987.35
2017-12-10T07:38:47.510Z,987.35
2017-12-10T07:39:47.536Z,987.35
2017-12-10T07:40:47.588Z,987.35
2017-12-10T07:41:47.791Z,987.35
2017-12-10T07:42:47.593Z,987.35
2017-12-10T07:43:47.787Z,987.35
2017-12-10T07:44:47.590Z,987.35
2017-12-10T07:45:47.653Z,987.35
2017-12-10T07:46:47.681Z,987.35
2017-12-10T07:47:47.595Z,987.35
2017-12-10T07:48:47.592Z,987.35
2017-12-10T07:49:47.791Z,987.35
2017-12-10T07:50:47.595Z,987.35
2017-12-10T07:51:47.659Z,987.35
2017-12-10T07:52:47.657Z,987.35
2017-12-10T07:53:47.595Z,987.35
2017-12-10T07:54:47.664Z,987.35
2017-12-10T07:55:47.591Z,987.35
2017-12-10T07:56:47.659Z,987.35
2017-12-10T07:57:47.599Z,987.35
2017-12-10T07:58:47.660Z,987.35
2017-12-10T07:59:47.601Z,987.35
2017-12-10T08:00:47.666Z,987.35
2017-12-10T08:01:47.608Z,987.35
2017-12-10T08:02:47.665Z,987.35
2017-12-10T08:03:47.594Z,987.35
2017-12-10T08:04:47.665Z,987.35
2017-12-10T08:05:47.600Z,987.35
2017-12-10T08:06:47.665Z,987.35
2017-12-10T08:07:47.666Z,987.35
2017-12-10T08:08:47.595Z,987.35
2017-12-10T08:09:47.669Z,987.35
2017-12-10T08:10:47.597Z,987.35
2017-12-10T08:11:47.668Z,987.35
2017-12-10T08:12:47.603Z,987.35
2017-12-10T08:13:47.671Z,987.35
2017-12-10T08:14:47.594Z,987.35
2017-12-10T08:15:47.668Z,987.35
2017-12-10T08:16:47.597Z,987.35
2017-12-10T08:17:47.670Z,987.35
2017-12-10T08:18:47.601Z,987.35
2017-12-10T08:19:47.532Z,987.35
2017-12-10T08:20:47.599Z,987.35
2017-12-10T08:21:47.565Z,987.35
2017-12-10T08:22:47.582Z,987.35
2017-12-10T08:23:47.632Z,987.35
2017-12-10T08:24:47.633Z,987.35
2017-12-10T08:25:47.567Z,987.35
2017-12-10T08:26:47.702Z,987.35
2017-12-10T08:27:47.636Z,987.35
2017-12-10T08:28:47.567Z,987.35
2017-12-10T08:29:47.683Z,987.35
2017-12-10T08:30:47.610Z,987.35
2017-12-10T08:31:47.680Z,987.35
2017-12-10T08:32:47.611Z,987.35
2017-12-10T08:33:47.681Z,987.35
2017-12-10T08:34:47.612Z,987.35
2017-12-10T08:35:47.687Z,987.35
2017-12-10T08:36:47.611Z,987.35
2017-12-10T08:37:47.682Z,987.35
2017-12-10T08:38:47.617Z,987.35
2017-12-10T08:39:47.685Z,987.35
2017-12-10T08:40:47.598Z,987.35
2017-12-10T08:41:47.610Z,987.35
2017-12-10T08:42:47.742Z,987.35
2017-12-10T08:43:47.616Z,987.35
2017-12-10T08:44:47.688Z,987.35
2017-12-10T08:45:47.712Z,987.35
2017-12-10T08:46:47.617Z,987.35
2017-12-10T08:47:47.687Z,987.35
2017-12-10T08:48:47.621Z,987.35
2017-12-10T08:49:47.688Z,987.35
2017-12-10T08:50:47.621Z,987.35
2017-12-10T08:51:47.692Z,987.35
2017-12-10T08:52:47.698Z,987.35
2017-12-10T08:53:47.621Z,987.35
2017-12-10T08:54:47.693Z,987.35
2017-12-10T08:55:47.621Z,987.35
2017-12-10T08:56:47.694Z,987.35
2017-12-10T08:57:47.624Z,987.35
2017-12-10T08:58:47.693Z,987.35
2017-12-10T08:59:47.588Z,987.35
2017-12-10T09:00:47.628Z,987.35
2017-12-10T09:01:47.550Z,987.35
2017-12-10T09:02:47.657Z,987.35
2017-12-10T09:03:47.659Z,987.35
2017-12-10T09:04:47.588Z,987.35
2017-12-10T09:05:47.588Z,987.35
2017-12-10T09:06:47.649Z,987.35
2017-12-10T09:07:47.651Z,987.35
2017-12-10T09:08:47.662Z,987.35
2017-12-10T09:09:47.627Z,987.35
2017-12-10T09:10:47.704Z,987.35
2017-12-10T09:11:47.633Z,987.35
2017-12-10T09:12:47.707Z,987.35
2017-12-10T09:13:47.633Z,987.35
2017-12-10T09:14:47.705Z,987.35
2017-12-10T09:15:47.635Z,987.35
2017-12-10T09:16:47.707Z,987.35
2017-12-10T09:17:47.639Z,987.35
2017-12-10T09:18:47.712Z,987.35
2017-12-10T09:19:47.635Z,987.35
2017-12-10T09:20:47.716Z,987.35
2017-12-10T09:21:47.637Z,987.35
2017-12-10T09:22:47.711Z,987.35
2017-12-10T09:23:47.639Z,987.35
2017-12-10T09:24:47.716Z,987.35
2017-12-10T09:25:47.642Z,987.35
2017-12-10T09:26:47.637Z,987.35
2017-12-10T09:27:47.715Z,987.35
2017-12-10T09:28:47.715Z,987.35
2017-12-10T09:29:47.621Z,987.35
2017-12-10T09:30:47.598Z,987.35
2017-12-10T09:31:47.580Z,987.35
2017-12-10T09:32:47.584Z,987.35
2017-12-10T09:33:47.604Z,987.35
2017-12-10T09:34:47.615Z,987.35
2017-12-10T09:35:47.621Z,987.35
2017-12-10T09:36:47.601Z,987.35
2017-12-10T09:37:47.681Z,987.35
2017-12-10T09:38:47.692Z,987.35
2017-12-10T09:39:47.578Z,987.35
2017-12-10T09:40:47.590Z,987.35
2017-12-10T09:41:47.713Z,987.35
2017-12-10T09:42:47.624Z,987.35
2017-12-10T09:43:47.693Z,987.35
2017-12-10T09:44:47.724Z,987.35
2017-12-10T09:45:47.723Z,987.35
2017-12-10T09:46:47.722Z,987.35
2017-12-10T09:47:47.687Z,987.35
2017-12-10T09:48:47.625Z,987.35
2017-12-10T09:49:47.648Z,987.35
2017-12-10T09:50:47.728Z,987.35
2017-12-10T09:51:47.657Z,987.35
2017-12-10T09:52:47.730Z,987.35
2017-12-10T09:53:47.729Z,987.35
2017-12-10T09:54:47.658Z,987.35
2017-12-10T09:55:47.734Z,987.35
2017-12-10T09:56:47.730Z,987.35
2017-12-10T09:57:47.662Z,987.35
2017-12-10T09:58:47.733Z,987.35
2017-12-10T09:59:47.660Z,987.35
2017-12-10T10:00:47.733Z,987.35
2017-12-10T10:01:47.655Z,987.35
2017-12-10T10:02:47.662Z,987.35
2017-12-10T10:03:47.738Z,987.35
2017-12-10T10:04:47.681Z,987.35
2017-12-10T10:05:47.737Z,987.35
2017-12-10T10:06:47.665Z,987.35
2017-12-10T10:07:47.665Z,987.35
2017-12-10T10:08:47.666Z,987.35
2017-12-10T10:09:47.738Z,987.35
2017-12-10T10:10:47.671Z,987.35
2017-12-10T10:11:47.758Z,987.35
2017-12-10T10:12:47.741Z,987.35
2017-12-10T10:13:47.674Z,987.35
2017-12-10T10:14:47.741Z,987.35
2017-12-10T10:15:47.670Z,987.35
2017-12-10T10:16:47.742Z,987.35
2017-12-10T10:17:47.712Z,987.35
2017-12-10T10:18:47.746Z,987.35
2017-12-10T10:19:47.674Z,987.35
2017-12-10T10:20:47.712Z,987.35
2017-12-10T10:21:47.744Z,987.35
2017-12-10T10:22:47.679Z,987.35
2017-12-10T10:23:47.748Z,987.35
2017-12-10T10:24:47.680Z,987.35
2017-12-10T10:25:47.746Z,987.35
2017-12-10T10:26:47.677Z,987.35
2017-12-10T10:27:47.749Z,987.35
2017-12-10T10:28:47.678Z,987.35
2017-12-10T10:29:47.697Z,987.35
2017-12-10T10:30:47.674Z,987.35
2017-12-10T10:31:47.603Z,987.35
2017-12-10T10:32:47.683Z,987.35
2017-12-10T10:33:47.659Z,987.35
2017-12-10T10:34:47.609Z,987.35
2017-12-10T10:35:47.658Z,987.35
2017-12-10T10:36:47.638Z,987.35
2017-12-10T10:37:47.685Z,987.35
2017-12-10T10:38:47.659Z,987.35
2017-12-10T10:39:47.696Z,987.35
2017-12-10T10:40:47.632Z,987.35
2017-12-10T10:41:47.695Z,987.35
2017-12-10T10:42:47.720Z,987.35
2017-12-10T10:43:47.748Z,987.35
2017-12-10T10:44:47.662Z,987.35
2017-12-10T10:45:47.635Z,987.35
2017-12-10T10:46:47.757Z,987.35
2017-12-10T10:47:47.666Z,987.35
2017-12-10T10:48:47.752Z,987.35
2017-12-10T10:49:47.655Z,987.35
2017-12-10T10:50:47.628Z,987.35
2017-12-10T10:51:47.718Z,987.35
2017-12-10T10:52:47.714Z,987.35
2017-12-10T10:53:47.651Z,987.35
2017-12-10T10:54:47.632Z,987.35
2017-12-10T10:55:47.690Z,987.35
2017-12-10T10:56:47.745Z,987.35
2017-12-10T10:57:47.698Z,987.35
2017-12-10T10:58:47.713Z,987.35
2017-12-10T10:59:47.704Z,987.35
2017-12-10T11:00:47.768Z,987.35
2017-12-10T11:01:47.704Z,987.35
2017-12-10T11:02:47.771Z,987.35
2017-12-10T11:03:47.702Z,987.35
2017-12-10T11:04:47.770Z,987.35
2017-12-10T11:05:47.700Z,987.35
2017-12-10T11:06:47.770Z,987.35
2017-12-10T11:07:47.772Z,987.35
2017-12-10T11:08:47.699Z,987.35
2017-12-10T11:09:47.779Z,987.35
2017-12-10T11:10:47.701Z,987.35
2017-12-10T11:11:47.776Z,987.35
2017-12-10T11:12:47.705Z,987.35
2017-12-10T11:13:47.777Z,987.35
2017-12-10T11:14:47.709Z,987.35
2017-12-10T11:15:47.777Z,987.35
2017-12-10T11:16:47.707Z,987.35
2017-12-10T11:17:47.781Z,987.35
2017-12-10T11:18:47.709Z,987.35
2017-12-10T11:19:47.780Z,987.35
2017-12-10T11:20:47.715Z,987.35
2017-12-10T11:21:47.786Z,987.35
2017-12-10T11:22:47.711Z,987.35
2017-12-10T11:23:47.783Z,987.35
2017-12-10T11:24:47.744Z,987.35
2017-12-10T11:25:47.784Z,987.35
2017-12-10T11:26:47.716Z,987.35
2017-12-10T11:27:47.783Z,987.35
2017-12-10T11:28:47.723Z,987.35
2017-12-10T11:29:47.788Z,987.35
2017-12-10T11:30:47.620Z,987.35
2017-12-10T11:31:47.623Z,987.35
2017-12-10T11:32:47.730Z,987.35
2017-12-10T11:33:47.615Z,987.35
2017-12-10T11:34:47.734Z,987.35
2017-12-10T11:35:47.624Z,987.35
2017-12-10T11:36:47.737Z,987.35
2017-12-10T11:37:47.622Z,987.35
2017-12-10T11:38:47.641Z,987.35
2017-12-10T11:39:47.650Z,987.35
2017-12-10T11:40:47.798Z,987.35
2017-12-10T11:41:47.718Z,987.35
2017-12-10T11:42:47.795Z,987.35
2017-12-10T11:43:47.725Z,987.35
2017-12-10T11:44:47.796Z,987.35
2017-12-10T11:45:47.727Z,987.35
2017-12-10T11:46:47.794Z,987.35
2017-12-10T11:47:47.731Z,987.35
2017-12-10T11:48:47.799Z,987.35
2017-12-10T11:49:47.731Z,987.35
2017-12-10T11:50:47.759Z,987.35
2017-12-10T11:51:47.753Z,987.35
2017-12-10T11:52:47.777Z,987.35
2017-12-10T11:53:47.750Z,987.35
2017-12-10T11:54:47.783Z,987.35
2017-12-10T11:55:47.698Z,987.35
2017-12-10T11:56:47.710Z,987.35
2017-12-10T11:57:47.731Z,987.35
2017-12-10T11:58:47.765Z,987.35
2017-12-10T11:59:47.688Z,987.35
2017-12-10T12:00:47.807Z,987.35
2017-12-10T12:01:47.732Z,987.35
2017-12-10T12:02:47.807Z,987.35
2017-12-10T12:03:47.731Z,987.35
2017-12-10T12:04:47.808Z,987.35
2017-12-10T12:05:47.734Z,987.35
2017-12-10T12:06:47.811Z,987.35
2017-12-10T12:07:47.737Z,987.35
2017-12-10T12:08:47.809Z,987.35
2017-12-10T12:09:47.811Z,987.35
2017-12-10T12:10:47.739Z,987.35
2017-12-10T12:11:47.812Z,987.35
2017-12-10T12:12:47.814Z,987.35
2017-12-10T12:13:47.741Z,987.35
2017-12-10T12:14:47.814Z,987.35
2017-12-10T12:15:47.742Z,987.35
2017-12-10T12:16:47.813Z,987.35
2017-12-10T12:17:47.741Z,987.35
2017-12-10T12:18:47.815Z,987.35
2017-12-10T12:19:47.789Z,987.35
2017-12-10T12:20:47.819Z,987.35
2017-12-10T12:21:47.819Z,987.35
2017-12-10T12:22:47.720Z,987.35
2017-12-10T12:23:47.806Z,987.35
2017-12-10T12:24:47.768Z,987.35
2017-12-10T12:25:47.773Z,987.35
2017-12-10T12:26:47.777Z,987.35
2017-12-10T12:27:47.772Z,987.35
2017-12-10T12:28:47.811Z,987.35
2017-12-10T12:29:47.723Z,987.35
2017-12-10T12:30:47.749Z,987.35